Indianola, Iowa
Current Conditions -  °F | °C
As of 10:54 PM on Sunday 21 Dec 2014 (Local Time) from KDSM Reporting Station
Overcast Overcast  
Wind Chill: 35°   Ceiling: 800
Heat Index: 43°   Visibility: 10mi
Dew Point: 39°   Wind: 17mph
Humidity: 86%   Direction: 170°S
Pressure: 29.76"   Gusts: NA
Location:  41.36°N, 93.56°W
Report Text: KDSM 220454Z 17015KT 10SM OVC008 06/04 A2976 RMK AO2 SLP083 T00610039
Loading
Personal Weather Stations






























Interactive Weather Map New forecast layout! Learn more

10-Day Weather Forecast

Advertisements
Track Severe Weather on mobile